Terminal Aerodrome Forecast
Issued by NWS Shreveport, LA

Home | Current Version | Previous Version | Text Only | Print | Product List | Glossary On
Versions: 1 2 3 4 5 6 7 8 9 10 11 12 13 14 15 16 17 18 19 20 21 22 23
000
FTUS44 KSHV 011803 RRA
TAFELD
TAF
KELD 011803Z 0118/0218 VRB05KT P6SM SCT021 BKN070
      TEMPO 0119/0121 5SM -TSRA BR BKN025CB OVC045
     FM012100 VRB05KT P6SM VCTS BKN030CB BKN045
     FM020300 VRB05KT P6SM BKN040
     FM020600 VRB05KT P6SM VCTS BKN030CB
      TEMPO 0207/0209 4SM -TSRA BR BKN009CB
     FM020900 VRB06KT 5SM -TSRA BR OVC008CB
     FM021500 03006KT 5SM -SHRA BR BKN005=

USA.gov is the U.S. government's official web portal to all federal, state and local government web resources and services.